createdAt,value
2023-08-20T00:01:34.537Z,11.13
2023-08-20T00:04:01.531Z,10.95
2023-08-20T00:06:28.660Z,15.43
2023-08-20T00:08:55.450Z,13.38
2023-08-20T00:11:22.225Z,11.40
2023-08-20T00:13:48.994Z,10.85
2023-08-20T00:16:16.068Z,9.85
2023-08-20T00:18:46.163Z,13.27
2023-08-20T00:21:15.225Z,11.80
2023-08-20T00:23:42.201Z,12.13
2023-08-20T00:26:09.449Z,11.65
2023-08-20T00:28:38.054Z,14.80
2023-08-20T00:31:04.995Z,12.82
2023-08-20T00:33:33.291Z,15.30
2023-08-20T00:36:00.047Z,12.52
2023-08-20T00:38:27.138Z,14.20
2023-08-20T00:40:54.424Z,14.10
2023-08-20T00:43:21.614Z,14.68
2023-08-20T00:45:48.441Z,13.80
2023-08-20T00:48:15.957Z,11.95
2023-08-20T00:50:42.989Z,15.63
2023-08-20T00:53:11.705Z,13.48
2023-08-20T00:55:38.658Z,11.70
2023-08-20T00:58:06.100Z,12.00
2023-08-20T01:00:33.148Z,12.35
2023-08-20T01:03:00.191Z,11.02
2023-08-20T01:05:27.305Z,11.85
2023-08-20T01:08:11.182Z,11.27
2023-08-20T01:11:10.512Z,10.25
2023-08-20T01:13:37.322Z,10.82
2023-08-20T01:16:04.473Z,12.15
2023-08-20T01:18:31.304Z,11.88
2023-08-20T01:21:03.616Z,14.65
2023-08-20T01:24:12.896Z,11.80
2023-08-20T01:27:08.225Z,11.65
2023-08-20T01:29:35.739Z,13.32
2023-08-20T01:32:06.104Z,15.52
2023-08-20T01:34:32.902Z,11.57
2023-08-20T01:36:59.624Z,14.32
2023-08-20T01:39:26.370Z,11.35
2023-08-20T01:41:53.196Z,16.02
2023-08-20T01:44:19.903Z,14.15
2023-08-20T01:46:47.891Z,13.75
2023-08-20T01:49:14.703Z,12.27
2023-08-20T01:51:41.551Z,12.45
2023-08-20T01:54:08.362Z,13.02
2023-08-20T01:56:37.241Z,13.68
2023-08-20T01:59:04.136Z,13.07
2023-08-20T02:01:31.068Z,14.40
2023-08-20T02:03:57.980Z,14.77
2023-08-20T02:06:24.823Z,13.38
2023-08-20T02:08:51.910Z,18.88
2023-08-20T02:11:18.695Z,14.30
2023-08-20T02:13:51.729Z,12.98
2023-08-20T02:16:18.446Z,17.27
2023-08-20T02:18:45.274Z,15.35
2023-08-20T02:21:12.273Z,13.82
2023-08-20T02:23:42.310Z,14.55
2023-08-20T02:26:09.516Z,16.58
2023-08-20T02:28:36.416Z,15.43
2023-08-20T02:31:07.209Z,13.82
2023-08-20T02:33:33.992Z,13.48
2023-08-20T02:36:04.688Z,15.10
2023-08-20T02:38:32.302Z,15.00
2023-08-20T02:41:09.045Z,12.55
2023-08-20T02:43:35.808Z,14.65
2023-08-20T02:46:03.703Z,19.20
2023-08-20T02:48:31.138Z,13.23
2023-08-20T02:50:57.929Z,14.32
2023-08-20T02:53:25.093Z,12.48
2023-08-20T02:55:52.086Z,14.85
2023-08-20T02:58:18.830Z,15.40
2023-08-20T03:00:46.305Z,13.38
2023-08-20T03:03:13.791Z,13.27
2023-08-20T03:05:46.566Z,14.20
2023-08-20T03:08:15.694Z,14.38
2023-08-20T03:10:42.579Z,13.13
2023-08-20T03:13:09.344Z,14.00
2023-08-20T03:15:36.066Z,14.45
2023-08-20T03:18:03.018Z,13.43
2023-08-20T03:20:32.079Z,14.23
2023-08-20T03:22:59.345Z,15.25
2023-08-20T03:25:26.482Z,16.17
2023-08-20T03:27:53.296Z,18.98
2023-08-20T03:30:23.277Z,13.15
2023-08-20T03:32:50.682Z,14.13
2023-08-20T03:35:17.950Z,13.43
2023-08-20T03:37:45.197Z,13.52
2023-08-20T03:40:12.281Z,13.52
2023-08-20T03:42:39.145Z,18.77
2023-08-20T03:45:06.439Z,13.77
2023-08-20T03:47:35.911Z,13.05
2023-08-20T03:50:02.877Z,14.25
2023-08-20T03:52:29.616Z,16.02
2023-08-20T03:54:56.704Z,13.10
2023-08-20T03:57:23.570Z,16.38
2023-08-20T03:59:50.236Z,13.63
2023-08-20T04:02:17.085Z,13.13
2023-08-20T04:04:43.951Z,12.23
2023-08-20T04:07:10.625Z,13.88
2023-08-20T04:09:37.844Z,12.45
2023-08-20T04:12:05.679Z,12.63
2023-08-20T04:14:32.442Z,14.05
2023-08-20T04:16:59.306Z,14.48
2023-08-20T04:19:26.333Z,12.73
2023-08-20T04:21:55.509Z,15.98
2023-08-20T04:24:22.485Z,11.90
2023-08-20T04:26:49.785Z,12.90
2023-08-20T04:29:16.556Z,14.38
2023-08-20T04:31:43.332Z,13.50
2023-08-20T04:34:10.146Z,11.15
2023-08-20T04:36:37.117Z,12.48
2023-08-20T04:39:05.882Z,14.65
2023-08-20T04:41:32.808Z,12.25
2023-08-20T04:43:59.679Z,12.02
2023-08-20T04:46:26.566Z,11.57
2023-08-20T04:48:53.576Z,13.90
2023-08-20T04:51:20.344Z,12.27
2023-08-20T04:53:48.616Z,12.35
2023-08-20T04:56:15.357Z,11.50
2023-08-20T04:58:42.147Z,12.45
2023-08-20T05:01:10.081Z,13.77
2023-08-20T05:03:36.990Z,12.25
2023-08-20T05:06:04.376Z,11.60
2023-08-20T05:08:31.161Z,10.30
2023-08-20T05:11:01.118Z,11.43
2023-08-20T05:13:27.922Z,10.82
2023-08-20T05:15:54.625Z,12.02
2023-08-20T05:18:21.353Z,11.00
2023-08-20T05:20:48.323Z,10.63
2023-08-20T05:23:15.125Z,9.88
2023-08-20T05:25:41.998Z,12.27
2023-08-20T05:28:08.851Z,11.73
2023-08-20T05:30:35.928Z,12.25
2023-08-20T05:33:03.048Z,12.90
2023-08-20T05:35:29.962Z,11.45
2023-08-20T05:38:00.059Z,13.80
2023-08-20T05:40:26.862Z,11.52
2023-08-20T05:42:53.833Z,12.68
2023-08-20T05:45:22.139Z,16.38
2023-08-20T05:47:48.872Z,12.23
2023-08-20T05:50:15.872Z,12.55
2023-08-20T05:52:42.698Z,12.65
2023-08-20T05:55:09.602Z,9.63
2023-08-20T05:57:38.092Z,12.68
2023-08-20T06:00:08.273Z,12.82
2023-08-20T06:02:35.243Z,12.77
2023-08-20T06:05:02.278Z,11.25
2023-08-20T06:07:29.074Z,11.63
2023-08-20T06:10:01.993Z,13.60
2023-08-20T06:12:28.650Z,10.90
2023-08-20T06:14:56.610Z,9.30
2023-08-20T06:17:23.339Z,10.18
2023-08-20T06:19:52.805Z,13.95
2023-08-20T06:22:19.843Z,11.65
2023-08-20T06:24:46.596Z,11.35
2023-08-20T06:27:13.644Z,9.13
2023-08-20T06:29:40.457Z,11.73
2023-08-20T06:32:07.470Z,11.60
2023-08-20T06:34:37.696Z,11.95
2023-08-20T06:37:04.548Z,11.77
2023-08-20T06:39:31.646Z,9.93
2023-08-20T06:41:58.660Z,14.30
2023-08-20T06:44:25.751Z,10.23
2023-08-20T06:46:52.713Z,10.73
2023-08-20T06:49:19.971Z,8.90
2023-08-20T06:51:46.955Z,10.05
2023-08-20T06:54:15.669Z,9.50
2023-08-20T06:56:42.632Z,11.43
2023-08-20T06:59:09.430Z,11.43
2023-08-20T07:01:36.162Z,13.23
2023-08-20T07:04:04.613Z,11.82
2023-08-20T07:06:31.696Z,9.90
2023-08-20T07:08:58.458Z,9.00
2023-08-20T07:11:25.404Z,11.82
2023-08-20T07:13:56.476Z,11.30
2023-08-20T07:16:23.401Z,11.65
2023-08-20T07:18:50.278Z,11.90
2023-08-20T07:21:19.319Z,10.75
2023-08-20T07:23:46.431Z,9.95
2023-08-20T07:26:13.542Z,8.95
2023-08-20T07:29:00.837Z,8.55
2023-08-20T07:31:33.269Z,13.00
2023-08-20T07:34:05.704Z,10.93
2023-08-20T07:36:33.305Z,12.40
2023-08-20T07:39:02.352Z,12.07
2023-08-20T07:41:29.509Z,14.10
2023-08-20T07:43:56.314Z,10.25
2023-08-20T07:46:23.166Z,12.55
2023-08-20T07:48:50.023Z,11.80
2023-08-20T07:51:17.179Z,11.93
2023-08-20T07:53:44.028Z,12.75
2023-08-20T07:56:10.815Z,10.23
2023-08-20T07:58:37.836Z,9.27
2023-08-20T08:01:04.663Z,8.75
2023-08-20T08:03:31.721Z,8.23
2023-08-20T08:05:58.796Z,11.98
2023-08-20T08:08:28.261Z,10.63
2023-08-20T08:10:55.172Z,8.82
2023-08-20T08:13:23.813Z,10.50
2023-08-20T08:15:54.025Z,9.23
2023-08-20T08:18:21.687Z,7.82
2023-08-20T08:20:48.517Z,8.05
2023-08-20T08:23:15.650Z,9.80
2023-08-20T08:25:42.885Z,9.95
2023-08-20T08:28:09.778Z,8.35
2023-08-20T08:30:36.833Z,10.82
2023-08-20T08:33:06.247Z,8.02
2023-08-20T08:35:33.460Z,7.72
2023-08-20T08:38:00.277Z,9.43
2023-08-20T08:40:30.521Z,7.47
2023-08-20T08:42:57.720Z,7.93
2023-08-20T08:45:24.592Z,6.25
2023-08-20T08:47:52.466Z,9.27
2023-08-20T08:50:19.316Z,6.80
2023-08-20T08:52:52.138Z,7.75
2023-08-20T08:55:23.206Z,10.20
2023-08-20T08:57:50.217Z,8.82
2023-08-20T09:00:17.423Z,7.43
2023-08-20T09:02:44.438Z,9.73
2023-08-20T09:05:11.368Z,7.78
2023-08-20T09:07:46.506Z,7.28
2023-08-20T09:10:13.497Z,6.45
2023-08-20T09:12:40.813Z,9.27
2023-08-20T09:15:12.316Z,7.43
2023-08-20T09:17:39.363Z,7.57
2023-08-20T09:20:06.968Z,9.38
2023-08-20T09:22:33.909Z,12.43
2023-08-20T09:25:01.968Z,9.60
2023-08-20T09:27:31.557Z,8.23
2023-08-20T09:29:59.384Z,9.90
2023-08-20T09:32:30.562Z,10.43
2023-08-20T09:34:57.797Z,9.05
2023-08-20T09:37:25.760Z,11.43
2023-08-20T09:39:52.538Z,7.13
2023-08-20T09:42:19.588Z,7.90
2023-08-20T09:44:50.310Z,9.00
2023-08-20T09:47:19.932Z,7.53
2023-08-20T09:49:48.758Z,7.28
2023-08-20T09:52:49.992Z,9.32
2023-08-20T09:55:23.528Z,13.55
2023-08-20T09:57:51.091Z,6.60
2023-08-20T10:00:17.925Z,7.30
2023-08-20T10:02:45.534Z,7.90
2023-08-20T10:05:13.717Z,9.63
2023-08-20T10:07:40.771Z,8.98
2023-08-20T10:10:09.441Z,7.20
2023-08-20T10:12:37.368Z,8.80
2023-08-20T10:15:08.314Z,7.75
2023-08-20T10:17:36.001Z,6.63
2023-08-20T10:20:06.797Z,8.32
2023-08-20T10:22:36.855Z,7.53
2023-08-20T10:25:10.338Z,6.35
2023-08-20T10:27:39.656Z,10.38
2023-08-20T10:30:16.485Z,6.55
2023-08-20T10:32:53.563Z,7.53
2023-08-20T10:35:29.144Z,6.72
2023-08-20T10:38:14.088Z,6.97
2023-08-20T10:40:55.663Z,7.18
2023-08-20T10:43:36.042Z,9.23
2023-08-20T10:46:22.729Z,7.57
2023-08-20T10:48:50.552Z,8.88
2023-08-20T10:51:19.011Z,8.27
2023-08-20T10:54:01.489Z,8.50
2023-08-20T10:57:00.349Z,9.40
2023-08-20T10:59:34.275Z,10.77
2023-08-20T11:02:01.724Z,7.93
2023-08-20T11:04:34.122Z,10.57
2023-08-20T11:07:05.987Z,12.07
2023-08-20T11:09:33.084Z,8.57
2023-08-20T11:12:00.275Z,11.43
2023-08-20T11:14:28.652Z,11.38
2023-08-20T11:16:55.565Z,8.85
2023-08-20T11:19:24.119Z,8.82
2023-08-20T11:21:51.628Z,8.45
2023-08-20T11:24:22.166Z,10.13
2023-08-20T11:26:49.482Z,10.70
2023-08-20T11:29:21.451Z,9.98
2023-08-20T11:31:49.602Z,9.93
2023-08-20T11:34:17.024Z,10.65
2023-08-20T11:36:43.842Z,9.45
2023-08-20T11:39:10.781Z,9.15
2023-08-20T11:41:39.122Z,10.93
2023-08-20T11:44:06.322Z,8.27
2023-08-20T11:46:33.358Z,11.80
2023-08-20T11:49:01.958Z,11.27
2023-08-20T11:51:34.818Z,8.68
2023-08-20T11:54:01.686Z,9.18
2023-08-20T11:56:29.036Z,7.63
2023-08-20T11:59:00.652Z,8.90
2023-08-20T12:01:27.652Z,8.38
2023-08-20T12:03:54.665Z,8.90
2023-08-20T12:06:22.400Z,8.93
2023-08-20T12:08:49.448Z,10.02
2023-08-20T12:11:16.165Z,9.27
2023-08-20T12:13:43.044Z,14.00
2023-08-20T12:16:12.679Z,8.65
2023-08-20T12:18:40.480Z,9.07
2023-08-20T12:21:11.092Z,9.27
2023-08-20T12:23:37.850Z,8.60
2023-08-20T12:26:05.061Z,9.38
2023-08-20T12:28:31.879Z,9.15
2023-08-20T12:31:01.582Z,9.48
2023-08-20T12:33:29.449Z,8.13
2023-08-20T12:35:56.761Z,10.68
2023-08-20T12:38:25.868Z,8.55
2023-08-20T12:40:57.235Z,9.60
2023-08-20T12:43:26.721Z,8.65
2023-08-20T12:45:53.641Z,8.50
2023-08-20T12:48:20.344Z,8.98
2023-08-20T12:50:47.798Z,8.57
2023-08-20T12:53:14.644Z,7.85
2023-08-20T12:55:41.490Z,8.75
2023-08-20T12:58:08.365Z,10.02
2023-08-20T13:00:35.072Z,8.48
2023-08-20T13:03:07.888Z,8.80
2023-08-20T13:05:35.326Z,8.63
2023-08-20T13:08:02.436Z,9.10
2023-08-20T13:10:31.101Z,9.70
2023-08-20T13:13:01.717Z,9.63
2023-08-20T13:15:28.911Z,7.75
2023-08-20T13:17:56.860Z,9.00
2023-08-20T13:20:25.270Z,9.35
2023-08-20T13:22:53.086Z,8.65
2023-08-20T13:25:23.680Z,7.72
2023-08-20T13:27:53.142Z,7.88
2023-08-20T13:30:23.038Z,8.45
2023-08-20T13:32:50.750Z,8.18
2023-08-20T13:35:17.751Z,8.02
2023-08-20T13:37:44.524Z,8.50
2023-08-20T13:40:11.734Z,8.65
2023-08-20T13:42:39.119Z,8.68
2023-08-20T13:45:06.960Z,7.60
2023-08-20T13:47:33.889Z,9.63
2023-08-20T13:50:00.946Z,7.88
2023-08-20T13:52:27.733Z,7.65
2023-08-20T13:54:54.539Z,10.48
2023-08-20T13:57:21.255Z,11.40
2023-08-20T13:59:48.002Z,7.28
2023-08-20T14:02:15.006Z,6.40
2023-08-20T14:04:41.688Z,6.75
2023-08-20T14:07:08.898Z,7.15
2023-08-20T14:09:37.593Z,7.18
2023-08-20T14:12:04.955Z,7.00
2023-08-20T14:14:32.133Z,9.27
2023-08-20T14:17:05.204Z,8.73
2023-08-20T14:19:32.015Z,8.02
2023-08-20T14:22:01.164Z,6.85
2023-08-20T14:24:28.109Z,6.53
2023-08-20T14:26:54.798Z,6.90
2023-08-20T14:29:21.677Z,7.05
2023-08-20T14:31:54.268Z,6.60
2023-08-20T14:34:21.291Z,6.20
2023-08-20T14:36:48.157Z,6.38
2023-08-20T14:39:15.232Z,6.85
2023-08-20T14:41:42.088Z,7.18
2023-08-20T14:44:08.869Z,6.68
2023-08-20T14:46:35.669Z,7.22
2023-08-20T14:49:02.733Z,9.65
2023-08-20T14:51:29.856Z,7.20
2023-08-20T14:54:00.147Z,6.60
2023-08-20T14:56:27.213Z,7.05
2023-08-20T14:58:54.288Z,6.68
2023-08-20T15:01:21.215Z,7.10
2023-08-20T15:03:47.945Z,6.75
2023-08-20T15:06:15.770Z,11.13
2023-08-20T15:08:42.629Z,7.57
2023-08-20T15:11:09.492Z,11.45
2023-08-20T15:13:36.900Z,6.65
2023-08-20T15:16:04.174Z,9.85
2023-08-20T15:18:32.556Z,7.32
2023-08-20T15:21:00.250Z,7.10
2023-08-20T15:23:28.936Z,7.85
2023-08-20T15:25:57.365Z,7.63
2023-08-20T15:28:26.726Z,8.60
2023-08-20T15:30:54.821Z,8.38
2023-08-20T15:33:21.901Z,8.63
2023-08-20T15:35:48.860Z,8.57
2023-08-20T15:38:16.645Z,6.88
2023-08-20T15:40:43.638Z,7.55
2023-08-20T15:43:12.628Z,7.68
2023-08-20T15:45:39.348Z,7.88
2023-08-20T15:48:06.946Z,9.38
2023-08-20T15:50:33.891Z,8.30
2023-08-20T15:53:06.353Z,8.45
2023-08-20T15:55:33.291Z,8.07
2023-08-20T15:58:00.034Z,8.30
2023-08-20T16:00:33.092Z,9.73
2023-08-20T16:03:05.947Z,9.57
2023-08-20T16:05:32.880Z,7.97
2023-08-20T16:07:59.946Z,7.10
2023-08-20T16:10:30.059Z,8.15
2023-08-20T16:12:56.757Z,7.68
2023-08-20T16:15:23.837Z,8.98
2023-08-20T16:17:50.800Z,7.82
2023-08-20T16:20:20.970Z,11.63
2023-08-20T16:22:47.743Z,8.38
2023-08-20T16:25:17.669Z,9.48
2023-08-20T16:27:45.143Z,8.18
2023-08-20T16:30:12.865Z,8.27
2023-08-20T16:32:40.026Z,7.75
2023-08-20T16:35:07.801Z,7.63
2023-08-20T16:37:35.532Z,8.30
2023-08-20T16:40:06.195Z,8.77
2023-08-20T16:42:33.025Z,12.05
2023-08-20T16:45:00.010Z,10.45
2023-08-20T16:47:26.716Z,9.25
2023-08-20T16:49:53.750Z,8.40
2023-08-20T16:52:21.785Z,8.68
2023-08-20T16:54:49.483Z,8.32
2023-08-20T16:57:16.235Z,8.93
2023-08-20T16:59:45.081Z,8.70
2023-08-20T17:02:14.738Z,9.82
2023-08-20T17:04:44.702Z,8.98
2023-08-20T17:07:11.843Z,7.90
2023-08-20T17:09:41.692Z,9.45
2023-08-20T17:12:14.281Z,8.55
2023-08-20T17:14:41.340Z,10.32
2023-08-20T17:17:08.725Z,8.52
2023-08-20T17:19:35.489Z,12.70
2023-08-20T17:22:02.493Z,10.95
2023-08-20T17:24:29.269Z,10.95
2023-08-20T17:26:56.027Z,9.88
2023-08-20T17:29:22.854Z,12.70
2023-08-20T17:31:52.646Z,9.93
2023-08-20T17:34:22.286Z,10.13
2023-08-20T17:36:49.740Z,9.52
2023-08-20T17:39:17.066Z,12.40
2023-08-20T17:41:44.270Z,9.93
2023-08-20T17:44:11.021Z,13.10
2023-08-20T17:46:49.624Z,11.77
2023-08-20T17:49:18.259Z,16.60
2023-08-20T17:51:45.340Z,10.20
2023-08-20T17:54:14.834Z,10.27
2023-08-20T17:56:41.810Z,11.52
2023-08-20T17:59:09.402Z,9.90
2023-08-20T18:01:36.374Z,10.43
2023-08-20T18:04:04.406Z,10.00
2023-08-20T18:06:35.037Z,11.48
2023-08-20T18:09:03.628Z,11.07
2023-08-20T18:11:30.676Z,15.70
2023-08-20T18:13:57.645Z,10.88
2023-08-20T18:16:24.416Z,14.52
2023-08-20T18:18:51.228Z,13.98
2023-08-20T18:21:17.937Z,11.18
2023-08-20T18:23:44.727Z,10.98
2023-08-20T18:26:13.168Z,12.75
2023-08-20T18:28:42.229Z,14.65
2023-08-20T18:31:12.336Z,12.10
2023-08-20T18:33:39.116Z,10.45
2023-08-20T18:36:07.792Z,14.32
2023-08-20T18:38:37.845Z,13.75
2023-08-20T18:41:08.346Z,16.23
2023-08-20T18:43:35.226Z,14.95
2023-08-20T18:46:03.782Z,14.70
2023-08-20T18:48:32.326Z,12.40
2023-08-20T18:51:02.002Z,14.27
2023-08-20T18:53:29.068Z,10.27
2023-08-20T18:55:55.919Z,13.00
2023-08-20T18:58:23.052Z,13.15
2023-08-20T19:00:50.063Z,12.23
2023-08-20T19:03:18.082Z,17.92
2023-08-20T19:05:53.805Z,11.65
2023-08-20T19:08:23.813Z,10.77
2023-08-20T19:10:52.353Z,12.25
2023-08-20T19:13:19.335Z,10.50
2023-08-20T19:15:47.589Z,10.52
2023-08-20T19:18:15.597Z,10.88
2023-08-20T19:20:50.216Z,12.18
2023-08-20T19:23:18.308Z,10.85
2023-08-20T19:25:45.560Z,12.00
2023-08-20T19:28:13.168Z,11.13
2023-08-20T19:30:50.094Z,12.27
2023-08-20T19:33:18.376Z,9.18
2023-08-20T19:35:45.996Z,10.85
2023-08-20T19:38:14.234Z,9.48
2023-08-20T19:40:45.951Z,10.38
2023-08-20T19:43:12.724Z,10.27
2023-08-20T19:45:39.409Z,10.98
2023-08-20T19:48:06.730Z,10.35
2023-08-20T19:50:36.458Z,9.60
2023-08-20T19:53:03.488Z,12.43
2023-08-20T19:55:30.523Z,10.63
2023-08-20T19:57:59.715Z,9.70
2023-08-20T20:00:26.655Z,9.50
2023-08-20T20:02:54.886Z,9.68
2023-08-20T20:05:22.566Z,9.80
2023-08-20T20:07:49.306Z,9.95
2023-08-20T20:10:16.572Z,9.15
2023-08-20T20:12:43.325Z,11.48
2023-08-20T20:15:14.009Z,9.98
2023-08-20T20:17:41.041Z,15.48
2023-08-20T20:20:12.288Z,12.20
2023-08-20T20:22:40.116Z,9.73
2023-08-20T20:25:07.263Z,11.05
2023-08-20T20:27:35.972Z,10.10
2023-08-20T20:30:07.219Z,11.05
2023-08-20T20:32:35.157Z,10.05
2023-08-20T20:35:02.570Z,9.43
2023-08-20T20:37:29.308Z,9.30
2023-08-20T20:39:56.566Z,9.38
2023-08-20T20:42:23.302Z,10.20
2023-08-20T20:44:50.551Z,11.65
2023-08-20T20:47:17.537Z,11.00
2023-08-20T20:49:46.838Z,9.35
2023-08-20T20:52:13.548Z,11.40
2023-08-20T20:54:40.280Z,10.98
2023-08-20T20:57:07.226Z,11.95
2023-08-20T20:59:36.385Z,11.40
2023-08-20T21:02:03.240Z,10.73
2023-08-20T21:04:30.414Z,9.93
2023-08-20T21:06:58.874Z,11.90
2023-08-20T21:09:25.813Z,9.85
2023-08-20T21:11:57.219Z,10.40
2023-08-20T21:14:26.844Z,11.10
2023-08-20T21:16:54.998Z,9.95
2023-08-20T21:19:21.730Z,12.15
2023-08-20T21:21:48.382Z,9.30
2023-08-20T21:24:15.857Z,11.50
2023-08-20T21:26:42.612Z,11.93
2023-08-20T21:29:09.622Z,12.07
2023-08-20T21:31:37.605Z,12.27
2023-08-20T21:34:04.338Z,11.80
2023-08-20T21:36:31.050Z,10.25
2023-08-20T21:39:01.232Z,11.48
2023-08-20T21:41:33.243Z,10.20
2023-08-20T21:44:00.530Z,10.43
2023-08-20T21:46:27.672Z,13.57
2023-08-20T21:48:57.240Z,9.73
2023-08-20T21:51:24.010Z,11.00
2023-08-20T21:53:56.687Z,11.32
2023-08-20T21:56:29.081Z,10.07
2023-08-20T21:58:58.944Z,9.45
2023-08-20T22:01:25.984Z,11.63
2023-08-20T22:03:52.910Z,9.25
2023-08-20T22:06:20.903Z,9.90
2023-08-20T22:08:48.282Z,13.43
2023-08-20T22:11:15.392Z,11.15
2023-08-20T22:13:47.204Z,12.73
2023-08-20T22:16:14.637Z,9.40
2023-08-20T22:18:53.097Z,12.30
2023-08-20T22:21:22.891Z,10.20
2023-08-20T22:23:50.183Z,9.70
2023-08-20T22:26:17.352Z,11.63
2023-08-20T22:28:44.332Z,10.70
2023-08-20T22:31:11.170Z,10.30
2023-08-20T22:33:38.126Z,10.35
2023-08-20T22:36:05.210Z,11.55
2023-08-20T22:38:32.320Z,9.05
2023-08-20T22:40:59.098Z,10.43
2023-08-20T22:43:25.945Z,10.90
2023-08-20T22:45:53.929Z,9.70
2023-08-20T22:48:21.160Z,10.65
2023-08-20T22:50:48.042Z,9.00
2023-08-20T22:53:14.941Z,11.82
2023-08-20T22:55:43.246Z,9.73
2023-08-20T22:58:09.993Z,10.48
2023-08-20T23:00:37.063Z,9.73
2023-08-20T23:03:04.139Z,10.73
2023-08-20T23:05:31.268Z,10.15
2023-08-20T23:07:58.111Z,11.40
2023-08-20T23:10:24.977Z,10.93
2023-08-20T23:12:51.767Z,10.43
2023-08-20T23:15:18.592Z,11.63
2023-08-20T23:17:45.473Z,11.50
2023-08-20T23:20:13.213Z,11.82
2023-08-20T23:22:40.156Z,11.75
2023-08-20T23:25:07.426Z,11.57
2023-08-20T23:27:34.162Z,10.05
2023-08-20T23:30:01.892Z,10.98
2023-08-20T23:32:28.696Z,11.32
2023-08-20T23:34:55.572Z,11.13
2023-08-20T23:37:25.225Z,11.32
2023-08-20T23:39:58.073Z,10.13
2023-08-20T23:42:27.923Z,10.32
2023-08-20T23:44:55.067Z,10.60
2023-08-20T23:47:22.034Z,10.93
2023-08-20T23:49:49.001Z,13.77
2023-08-20T23:52:15.906Z,10.63
2023-08-20T23:54:50.108Z,12.07
2023-08-20T23:57:17.075Z,11.68
2023-08-20T23:59:47.138Z,12.82
